Garfield County Regional Airport
KRIL : now visible

Airfield :











YOU CAN JOIN US ON...

 
LOGIN :

Register | Disclaimer

   EN    FR    IT 

 









Legend :    VFR   Marginal VFR   IFR   Intensive IFR   Very Intensive IFR
Visi :
Ceiling :
>= 8 km
>= 3000ft
5 to 8 km
1000 to 3000 ft
1500m to 5 km
500 to 1000 ft
800 to 1500m
200 to 500 ft
< 800m
< 200 ft
Symbols :   Thunderstorms  Fog  Heavy snow  Heavy precipitations  Wind > 20 kt






- Airport Elevation : 5548 ft


KRIL - Garfield County Regional

CURRENT METAR :
  • 052253Z AUTO 34008G16KT 10SM CLR 33/03 A3008 RMK AO2 PK WND 33032/2154 SLP109 T03330033

EXPIRED METARs :
  • 052153Z AUTO 32024G33KT 10SM CLR 29/03 A3009 RMK AO2 PK WND 30037/2142 WSHFT 2132 SLP121 T02940033
  • 052053Z AUTO 36015G31KT 10SM CLR 34/03 A3008 RMK AO2 PK WND 36031/2046 SLP102 T03440028 56020

TAF KRIL
Valid from the 06 at 00:00 until the 07 at 00:00 UTC


052332Z 0600/0624 34008G16KT P6SM SCT120
FM060100 25006KT P6SM FEW120
FM060300 VRB04KT P6SM SKC
FM061900 26006KT P6SM FEW120
KZDV FIR / North America



MET'MAP, your aeronautical weather chart ! - Copyright ORBIFLY December 2007 - Disclaimer

ORBIFLY MET'MAP TEAM :

Programming & Development : Alexandra Zaïnal
Concept & original design : Baudouin d'Aumeries
Assistance for programming : Marc-Olivier Méhu
Technical & hardware support : Manuel Goepfert

Contact : metmap@orbifly.com




SOURCES & CREDITS :

   NOAA       Earth
Advisory